sensor_id;sensor_type;location;lat;lon;timestamp;P1;durP1;ratioP1;P2;durP2;ratioP2
52724;SDS011;38621;52.830;6.914;2024-03-23T00:56:00;63.08;;;60.40;;
52724;SDS011;38621;52.830;6.914;2024-03-23T00:58:25;65.20;;;62.03;;
52724;SDS011;38621;52.830;6.914;2024-03-23T01:00:51;66.78;;;64.10;;
52724;SDS011;38621;52.830;6.914;2024-03-23T01:03:17;66.20;;;62.83;;
52724;SDS011;38621;52.830;6.914;2024-03-23T01:05:42;65.97;;;63.03;;
52724;SDS011;38621;52.830;6.914;2024-03-23T01:08:08;68.53;;;64.90;;
52724;SDS011;38621;52.830;6.914;2024-03-23T01:10:34;65.72;;;62.78;;
52724;SDS011;38621;52.830;6.914;2024-03-23T01:12:59;68.45;;;64.78;;
52724;SDS011;38621;52.830;6.914;2024-03-23T01:15:25;64.93;;;62.00;;
52724;SDS011;38621;52.830;6.914;2024-03-23T01:17:51;62.80;;;59.78;;
52724;SDS011;38621;52.830;6.914;2024-03-23T01:20:16;62.75;;;59.83;;
52724;SDS011;38621;52.830;6.914;2024-03-23T01:22:42;61.15;;;58.15;;
52724;SDS011;38621;52.830;6.914;2024-03-23T01:25:07;63.13;;;60.30;;
52724;SDS011;38621;52.830;6.914;2024-03-23T01:27:33;66.53;;;61.95;;
52724;SDS011;38621;52.830;6.914;2024-03-23T01:29:59;65.25;;;61.97;;
52724;SDS011;38621;52.830;6.914;2024-03-23T01:32:25;67.97;;;64.68;;
52724;SDS011;38621;52.830;6.914;2024-03-23T01:34:50;64.57;;;61.70;;
52724;SDS011;38621;52.830;6.914;2024-03-23T01:37:16;65.32;;;61.95;;
52724;SDS011;38621;52.830;6.914;2024-03-23T01:39:41;67.95;;;64.60;;
52724;SDS011;38621;52.830;6.914;2024-03-23T01:42:07;69.22;;;66.25;;
52724;SDS011;38621;52.830;6.914;2024-03-23T01:44:33;65.88;;;62.92;;
52724;SDS011;38621;52.830;6.914;2024-03-23T01:46:58;66.32;;;62.85;;
52724;SDS011;38621;52.830;6.914;2024-03-23T01:49:24;64.70;;;61.50;;
52724;SDS011;38621;52.830;6.914;2024-03-23T01:51:50;66.07;;;62.88;;
52724;SDS011;38621;52.830;6.914;2024-03-23T01:54:16;67.95;;;64.75;;
52724;SDS011;38621;52.830;6.914;2024-03-23T01:56:41;69.97;;;67.03;;
52724;SDS011;38621;52.830;6.914;2024-03-23T01:59:07;66.75;;;63.80;;
52724;SDS011;38621;52.830;6.914;2024-03-23T02:01:36;63.60;;;60.72;;
52724;SDS011;38621;52.830;6.914;2024-03-23T02:04:01;68.50;;;65.03;;
52724;SDS011;38621;52.830;6.914;2024-03-23T02:06:27;70.47;;;66.75;;
52724;SDS011;38621;52.830;6.914;2024-03-23T02:08:54;68.72;;;65.63;;
52724;SDS011;38621;52.830;6.914;2024-03-23T02:11:20;71.60;;;68.38;;
52724;SDS011;38621;52.830;6.914;2024-03-23T02:13:45;79.30;;;75.38;;
52724;SDS011;38621;52.830;6.914;2024-03-23T02:16:11;82.40;;;79.13;;
52724;SDS011;38621;52.830;6.914;2024-03-23T02:18:38;81.82;;;78.28;;
52724;SDS011;38621;52.830;6.914;2024-03-23T02:21:04;81.45;;;77.75;;
52724;SDS011;38621;52.830;6.914;2024-03-23T02:23:30;84.55;;;80.63;;
52724;SDS011;38621;52.830;6.914;2024-03-23T02:25:55;84.85;;;81.45;;
52724;SDS011;38621;52.830;6.914;2024-03-23T02:28:21;79.38;;;76.22;;
52724;SDS011;38621;52.830;6.914;2024-03-23T02:30:50;79.22;;;75.82;;
52724;SDS011;38621;52.830;6.914;2024-03-23T02:33:16;82.35;;;78.45;;
52724;SDS011;38621;52.830;6.914;2024-03-23T02:35:43;90.35;;;86.63;;
52724;SDS011;38621;52.830;6.914;2024-03-23T02:38:10;91.28;;;87.35;;
52724;SDS011;38621;52.830;6.914;2024-03-23T02:40:35;79.53;;;76.07;;
52724;SDS011;38621;52.830;6.914;2024-03-23T02:43:02;79.40;;;75.90;;
52724;SDS011;38621;52.830;6.914;2024-03-23T02:45:29;91.90;;;88.15;;
52724;SDS011;38621;52.830;6.914;2024-03-23T02:47:54;82.47;;;78.80;;
52724;SDS011;38621;52.830;6.914;2024-03-23T02:50:20;90.60;;;86.22;;
52724;SDS011;38621;52.830;6.914;2024-03-23T02:52:46;84.95;;;81.40;;
52724;SDS011;38621;52.830;6.914;2024-03-23T02:55:13;85.53;;;82.28;;
52724;SDS011;38621;52.830;6.914;2024-03-23T02:57:39;81.38;;;78.15;;
52724;SDS011;38621;52.830;6.914;2024-03-23T03:00:05;94.13;;;90.45;;
52724;SDS011;38621;52.830;6.914;2024-03-23T03:02:32;89.22;;;84.35;;
52724;SDS011;38621;52.830;6.914;2024-03-23T03:04:58;93.10;;;89.05;;
52724;SDS011;38621;52.830;6.914;2024-03-23T03:07:23;88.32;;;84.53;;
52724;SDS011;38621;52.830;6.914;2024-03-23T03:09:49;96.57;;;92.75;;
52724;SDS011;38621;52.830;6.914;2024-03-23T03:12:15;105.32;;;100.97;;
52724;SDS011;38621;52.830;6.914;2024-03-23T03:14:40;89.63;;;85.82;;
52724;SDS011;38621;52.830;6.914;2024-03-23T03:17:06;93.65;;;89.57;;
52724;SDS011;38621;52.830;6.914;2024-03-23T03:19:32;93.93;;;89.95;;
52724;SDS011;38621;52.830;6.914;2024-03-23T03:21:57;98.28;;;94.35;;
52724;SDS011;38621;52.830;6.914;2024-03-23T03:24:23;87.97;;;84.38;;
52724;SDS011;38621;52.830;6.914;2024-03-23T03:26:49;84.55;;;80.72;;
52724;SDS011;38621;52.830;6.914;2024-03-23T03:29:15;78.35;;;74.95;;
52724;SDS011;38621;52.830;6.914;2024-03-23T03:31:41;81.47;;;77.18;;
52724;SDS011;38621;52.830;6.914;2024-03-23T03:34:10;83.25;;;79.95;;
52724;SDS011;38621;52.830;6.914;2024-03-23T03:36:35;77.03;;;73.80;;
52724;SDS011;38621;52.830;6.914;2024-03-23T03:39:01;74.75;;;71.15;;
52724;SDS011;38621;52.830;6.914;2024-03-23T03:41:31;80.30;;;76.85;;
52724;SDS011;38621;52.830;6.914;2024-03-23T03:43:56;81.60;;;78.05;;
52724;SDS011;38621;52.830;6.914;2024-03-23T03:46:26;76.82;;;73.28;;
52724;SDS011;38621;52.830;6.914;2024-03-23T03:48:52;75.28;;;72.28;;
52724;SDS011;38621;52.830;6.914;2024-03-23T03:51:19;78.15;;;75.10;;
52724;SDS011;38621;52.830;6.914;2024-03-23T03:53:44;80.68;;;77.43;;
52724;SDS011;38621;52.830;6.914;2024-03-23T03:56:10;81.00;;;77.15;;
52724;SDS011;38621;52.830;6.914;2024-03-23T03:58:35;84.93;;;81.40;;
52724;SDS011;38621;52.830;6.914;2024-03-23T04:01:01;103.15;;;98.90;;
52724;SDS011;38621;52.830;6.914;2024-03-23T04:03:27;109.78;;;105.30;;
52724;SDS011;38621;52.830;6.914;2024-03-23T04:05:53;97.13;;;92.93;;
52724;SDS011;38621;52.830;6.914;2024-03-23T04:08:19;88.45;;;84.85;;
52724;SDS011;38621;52.830;6.914;2024-03-23T04:10:45;112.35;;;107.93;;
52724;SDS011;38621;52.830;6.914;2024-03-23T04:13:12;116.32;;;112.00;;
52724;SDS011;38621;52.830;6.914;2024-03-23T04:15:38;100.70;;;96.70;;
52724;SDS011;38621;52.830;6.914;2024-03-23T04:18:04;125.00;;;120.47;;
52724;SDS011;38621;52.830;6.914;2024-03-23T04:20:30;101.90;;;98.00;;
52724;SDS011;38621;52.830;6.914;2024-03-23T04:22:55;110.85;;;106.63;;
52724;SDS011;38621;52.830;6.914;2024-03-23T04:25:21;126.68;;;121.50;;
52724;SDS011;38621;52.830;6.914;2024-03-23T04:27:46;111.72;;;107.50;;
52724;SDS011;38621;52.830;6.914;2024-03-23T04:30:12;123.72;;;118.90;;
52724;SDS011;38621;52.830;6.914;2024-03-23T04:32:39;121.60;;;116.43;;
52724;SDS011;38621;52.830;6.914;2024-03-23T04:35:05;115.70;;;110.70;;
52724;SDS011;38621;52.830;6.914;2024-03-23T04:37:34;124.07;;;118.85;;
52724;SDS011;38621;52.830;6.914;2024-03-23T04:40:03;118.75;;;113.82;;
52724;SDS011;38621;52.830;6.914;2024-03-23T04:42:29;109.70;;;104.90;;
52724;SDS011;38621;52.830;6.914;2024-03-23T04:44:56;86.50;;;82.82;;
52724;SDS011;38621;52.830;6.914;2024-03-23T04:47:21;92.85;;;89.00;;
52724;SDS011;38621;52.830;6.914;2024-03-23T04:49:47;98.40;;;94.35;;
52724;SDS011;38621;52.830;6.914;2024-03-23T04:52:13;112.25;;;107.45;;
52724;SDS011;38621;52.830;6.914;2024-03-23T04:54:39;99.13;;;95.38;;
52724;SDS011;38621;52.830;6.914;2024-03-23T04:57:05;107.38;;;103.47;;
52724;SDS011;38621;52.830;6.914;2024-03-23T04:59:31;120.72;;;116.22;;
52724;SDS011;38621;52.830;6.914;2024-03-23T05:01:57;192.10;;;185.32;;
52724;SDS011;38621;52.830;6.914;2024-03-23T05:04:23;174.73;;;167.43;;
52724;SDS011;38621;52.830;6.914;2024-03-23T05:06:48;185.30;;;178.75;;
52724;SDS011;38621;52.830;6.914;2024-03-23T05:09:14;138.80;;;133.85;;
52724;SDS011;38621;52.830;6.914;2024-03-23T05:11:40;142.52;;;136.55;;
52724;SDS011;38621;52.830;6.914;2024-03-23T05:14:06;117.20;;;112.65;;
52724;SDS011;38621;52.830;6.914;2024-03-23T05:16:32;156.30;;;150.48;;
52724;SDS011;38621;52.830;6.914;2024-03-23T05:18:58;121.50;;;116.53;;
52724;SDS011;38621;52.830;6.914;2024-03-23T05:21:24;114.65;;;110.15;;
52724;SDS011;38621;52.830;6.914;2024-03-23T05:23:49;113.45;;;108.32;;
52724;SDS011;38621;52.830;6.914;2024-03-23T05:26:16;118.72;;;113.90;;
52724;SDS011;38621;52.830;6.914;2024-03-23T05:28:42;133.75;;;128.20;;
52724;SDS011;38621;52.830;6.914;2024-03-23T05:31:08;98.80;;;94.70;;
52724;SDS011;38621;52.830;6.914;2024-03-23T05:33:35;130.68;;;125.55;;
52724;SDS011;38621;52.830;6.914;2024-03-23T05:36:05;125.72;;;120.57;;
52724;SDS011;38621;52.830;6.914;2024-03-23T05:38:31;157.75;;;151.95;;
52724;SDS011;38621;52.830;6.914;2024-03-23T05:40:59;163.32;;;157.15;;
52724;SDS011;38621;52.830;6.914;2024-03-23T05:43:26;109.63;;;104.22;;
52724;SDS011;38621;52.830;6.914;2024-03-23T05:45:56;148.73;;;143.52;;
52724;SDS011;38621;52.830;6.914;2024-03-23T05:48:23;126.82;;;122.07;;
52724;SDS011;38621;52.830;6.914;2024-03-23T05:50:49;108.53;;;104.18;;
52724;SDS011;38621;52.830;6.914;2024-03-23T05:53:16;119.43;;;114.93;;
52724;SDS011;38621;52.830;6.914;2024-03-23T05:55:42;101.60;;;97.65;;
52724;SDS011;38621;52.830;6.914;2024-03-23T05:58:08;127.07;;;122.50;;
52724;SDS011;38621;52.830;6.914;2024-03-23T06:00:34;168.93;;;162.80;;
52724;SDS011;38621;52.830;6.914;2024-03-23T06:02:59;100.45;;;96.50;;
52724;SDS011;38621;52.830;6.914;2024-03-23T06:05:25;150.30;;;144.65;;
52724;SDS011;38621;52.830;6.914;2024-03-23T06:07:51;170.90;;;164.13;;
52724;SDS011;38621;52.830;6.914;2024-03-23T06:10:17;150.52;;;144.90;;
52724;SDS011;38621;52.830;6.914;2024-03-23T06:12:43;149.57;;;144.18;;
52724;SDS011;38621;52.830;6.914;2024-03-23T06:15:10;140.02;;;135.07;;
52724;SDS011;38621;52.830;6.914;2024-03-23T06:17:36;120.60;;;116.00;;
52724;SDS011;38621;52.830;6.914;2024-03-23T06:20:02;133.93;;;128.88;;
52724;SDS011;38621;52.830;6.914;2024-03-23T06:22:28;121.57;;;116.40;;
52724;SDS011;38621;52.830;6.914;2024-03-23T06:24:54;178.20;;;171.95;;
52724;SDS011;38621;52.830;6.914;2024-03-23T06:27:20;132.55;;;127.82;;
52724;SDS011;38621;52.830;6.914;2024-03-23T06:29:45;146.43;;;140.73;;
52724;SDS011;38621;52.830;6.914;2024-03-23T06:32:11;145.43;;;140.05;;
52724;SDS011;38621;52.830;6.914;2024-03-23T06:34:36;142.27;;;136.57;;
52724;SDS011;38621;52.830;6.914;2024-03-23T06:37:02;110.68;;;106.35;;
52724;SDS011;38621;52.830;6.914;2024-03-23T06:39:28;134.02;;;129.23;;
52724;SDS011;38621;52.830;6.914;2024-03-23T06:41:54;183.98;;;177.10;;
52724;SDS011;38621;52.830;6.914;2024-03-23T06:44:21;197.88;;;190.05;;
52724;SDS011;38621;52.830;6.914;2024-03-23T06:46:47;125.57;;;120.50;;
52724;SDS011;38621;52.830;6.914;2024-03-23T06:49:14;102.95;;;98.78;;
52724;SDS011;38621;52.830;6.914;2024-03-23T06:51:40;108.78;;;104.53;;
52724;SDS011;38621;52.830;6.914;2024-03-23T06:54:06;142.02;;;136.10;;
52724;SDS011;38621;52.830;6.914;2024-03-23T06:56:32;98.50;;;94.70;;
52724;SDS011;38621;52.830;6.914;2024-03-23T06:58:59;86.38;;;83.18;;
52724;SDS011;38621;52.830;6.914;2024-03-23T07:01:25;93.13;;;89.70;;
52724;SDS011;38621;52.830;6.914;2024-03-23T07:03:51;106.15;;;101.85;;
52724;SDS011;38621;52.830;6.914;2024-03-23T07:06:16;102.90;;;99.07;;
52724;SDS011;38621;52.830;6.914;2024-03-23T07:08:42;133.95;;;128.85;;
52724;SDS011;38621;52.830;6.914;2024-03-23T07:11:07;110.15;;;106.40;;
52724;SDS011;38621;52.830;6.914;2024-03-23T07:13:33;135.02;;;130.25;;
52724;SDS011;38621;52.830;6.914;2024-03-23T07:15:59;134.40;;;129.93;;
52724;SDS011;38621;52.830;6.914;2024-03-23T07:18:25;139.60;;;134.20;;
52724;SDS011;38621;52.830;6.914;2024-03-23T07:20:57;135.10;;;130.52;;
52724;SDS011;38621;52.830;6.914;2024-03-23T07:23:26;143.98;;;138.85;;
52724;SDS011;38621;52.830;6.914;2024-03-23T07:26:01;146.88;;;141.98;;
52724;SDS011;38621;52.830;6.914;2024-03-23T07:28:29;139.85;;;134.75;;
52724;SDS011;38621;52.830;6.914;2024-03-23T07:31:09;79.00;;;76.18;;
52724;SDS011;38621;52.830;6.914;2024-03-23T07:33:36;106.45;;;102.88;;
52724;SDS011;38621;52.830;6.914;2024-03-23T07:36:03;138.30;;;133.45;;
52724;SDS011;38621;52.830;6.914;2024-03-23T07:38:30;182.30;;;176.20;;
52724;SDS011;38621;52.830;6.914;2024-03-23T07:41:02;163.65;;;158.18;;
52724;SDS011;38621;52.830;6.914;2024-03-23T07:43:35;255.57;;;246.88;;
52724;SDS011;38621;52.830;6.914;2024-03-23T07:46:02;282.77;;;271.27;;
52724;SDS011;38621;52.830;6.914;2024-03-23T07:48:29;143.20;;;137.80;;
52724;SDS011;38621;52.830;6.914;2024-03-23T07:53:29;213.20;;;205.40;;
52724;SDS011;38621;52.830;6.914;2024-03-23T07:55:56;163.68;;;158.10;;
52724;SDS011;38621;52.830;6.914;2024-03-23T07:58:23;208.40;;;201.10;;
52724;SDS011;38621;52.830;6.914;2024-03-23T08:00:48;197.23;;;190.10;;
52724;SDS011;38621;52.830;6.914;2024-03-23T08:03:14;241.85;;;233.10;;
52724;SDS011;38621;52.830;6.914;2024-03-23T08:05:40;174.10;;;167.98;;
52724;SDS011;38621;52.830;6.914;2024-03-23T08:08:06;108.60;;;105.10;;
52724;SDS011;38621;52.830;6.914;2024-03-23T08:10:31;116.30;;;111.80;;
52724;SDS011;38621;52.830;6.914;2024-03-23T08:12:57;130.15;;;125.68;;
52724;SDS011;38621;52.830;6.914;2024-03-23T08:15:23;142.57;;;137.80;;
52724;SDS011;38621;52.830;6.914;2024-03-23T08:17:49;145.32;;;140.55;;
52724;SDS011;38621;52.830;6.914;2024-03-23T08:20:15;160.25;;;155.07;;
52724;SDS011;38621;52.830;6.914;2024-03-23T08:22:40;241.32;;;232.57;;
52724;SDS011;38621;52.830;6.914;2024-03-23T08:25:06;194.10;;;187.43;;
52724;SDS011;38621;52.830;6.914;2024-03-23T08:27:32;189.10;;;182.93;;
52724;SDS011;38621;52.830;6.914;2024-03-23T08:29:58;251.82;;;242.30;;
52724;SDS011;38621;52.830;6.914;2024-03-23T08:32:24;175.32;;;168.98;;
52724;SDS011;38621;52.830;6.914;2024-03-23T08:34:49;184.15;;;177.88;;
52724;SDS011;38621;52.830;6.914;2024-03-23T08:37:15;170.23;;;164.60;;
52724;SDS011;38621;52.830;6.914;2024-03-23T08:39:42;206.48;;;199.82;;
52724;SDS011;38621;52.830;6.914;2024-03-23T08:42:08;185.55;;;179.45;;
52724;SDS011;38621;52.830;6.914;2024-03-23T08:44:34;178.15;;;172.35;;
52724;SDS011;38621;52.830;6.914;2024-03-23T08:47:00;298.13;;;287.13;;
52724;SDS011;38621;52.830;6.914;2024-03-23T08:49:26;145.93;;;140.70;;
52724;SDS011;38621;52.830;6.914;2024-03-23T08:51:52;186.88;;;180.80;;
52724;SDS011;38621;52.830;6.914;2024-03-23T08:54:19;145.85;;;141.10;;
52724;SDS011;38621;52.830;6.914;2024-03-23T08:56:45;148.50;;;143.45;;
52724;SDS011;38621;52.830;6.914;2024-03-23T08:59:11;142.07;;;137.43;;
52724;SDS011;38621;52.830;6.914;2024-03-23T09:01:37;101.50;;;97.55;;
52724;SDS011;38621;52.830;6.914;2024-03-23T09:04:03;103.03;;;99.55;;
52724;SDS011;38621;52.830;6.914;2024-03-23T09:06:29;101.20;;;97.93;;
52724;SDS011;38621;52.830;6.914;2024-03-23T09:08:55;78.47;;;75.75;;
52724;SDS011;38621;52.830;6.914;2024-03-23T09:11:20;114.43;;;110.20;;
52724;SDS011;38621;52.830;6.914;2024-03-23T09:14:01;96.47;;;93.25;;
52724;SDS011;38621;52.830;6.914;2024-03-23T09:16:27;106.82;;;103.15;;
52724;SDS011;38621;52.830;6.914;2024-03-23T09:18:52;99.03;;;95.70;;
52724;SDS011;38621;52.830;6.914;2024-03-23T09:21:18;113.07;;;109.18;;
52724;SDS011;38621;52.830;6.914;2024-03-23T09:23:44;89.57;;;86.53;;
52724;SDS011;38621;52.830;6.914;2024-03-23T09:26:10;166.02;;;159.95;;
52724;SDS011;38621;52.830;6.914;2024-03-23T09:28:35;88.53;;;85.50;;
52724;SDS011;38621;52.830;6.914;2024-03-23T09:31:02;105.72;;;101.75;;
52724;SDS011;38621;52.830;6.914;2024-03-23T09:33:32;98.95;;;94.93;;
52724;SDS011;38621;52.830;6.914;2024-03-23T09:35:58;176.25;;;169.85;;
52724;SDS011;38621;52.830;6.914;2024-03-23T09:38:32;290.73;;;279.13;;
52724;SDS011;38621;52.830;6.914;2024-03-23T09:40:58;272.88;;;262.17;;
52724;SDS011;38621;52.830;6.914;2024-03-23T09:43:24;169.95;;;163.80;;
52724;SDS011;38621;52.830;6.914;2024-03-23T09:45:50;177.43;;;170.80;;
52724;SDS011;38621;52.830;6.914;2024-03-23T09:48:16;85.10;;;82.25;;
52724;SDS011;38621;52.830;6.914;2024-03-23T09:50:43;117.55;;;113.60;;
52724;SDS011;38621;52.830;6.914;2024-03-23T09:53:10;145.52;;;140.63;;
52724;SDS011;38621;52.830;6.914;2024-03-23T09:55:37;251.10;;;238.30;;
52724;SDS011;38621;52.830;6.914;2024-03-23T09:58:04;93.28;;;89.85;;
52724;SDS011;38621;52.830;6.914;2024-03-23T10:00:31;208.98;;;198.13;;
52724;SDS011;38621;52.830;6.914;2024-03-23T10:03:00;94.45;;;91.03;;
52724;SDS011;38621;52.830;6.914;2024-03-23T10:05:30;55.47;;;53.53;;
52724;SDS011;38621;52.830;6.914;2024-03-23T10:10:42;102.90;;;99.47;;
52724;SDS011;38621;52.830;6.914;2024-03-23T10:13:09;65.03;;;62.55;;
52724;SDS011;38621;52.830;6.914;2024-03-23T10:15:35;68.30;;;65.85;;
52724;SDS011;38621;52.830;6.914;2024-03-23T10:18:17;82.57;;;79.72;;
52724;SDS011;38621;52.830;6.914;2024-03-23T10:23:40;75.40;;;72.65;;
52724;SDS011;38621;52.830;6.914;2024-03-23T10:28:50;113.00;;;108.15;;
52724;SDS011;38621;52.830;6.914;2024-03-23T10:31:16;101.18;;;97.57;;
52724;SDS011;38621;52.830;6.914;2024-03-23T10:33:47;51.67;;;49.75;;
52724;SDS011;38621;52.830;6.914;2024-03-23T10:36:13;95.78;;;92.38;;
52724;SDS011;38621;52.830;6.914;2024-03-23T10:38:40;97.78;;;94.32;;
52724;SDS011;38621;52.830;6.914;2024-03-23T10:41:08;106.13;;;102.50;;
52724;SDS011;38621;52.830;6.914;2024-03-23T10:43:35;90.05;;;86.95;;
52724;SDS011;38621;52.830;6.914;2024-03-23T10:46:02;93.70;;;90.40;;
52724;SDS011;38621;52.830;6.914;2024-03-23T10:48:28;101.32;;;97.88;;
52724;SDS011;38621;52.830;6.914;2024-03-23T10:50:54;95.28;;;91.80;;
52724;SDS011;38621;52.830;6.914;2024-03-23T10:53:25;113.68;;;109.70;;
52724;SDS011;38621;52.830;6.914;2024-03-23T10:55:52;62.97;;;60.60;;
52724;SDS011;38621;52.830;6.914;2024-03-23T10:58:19;77.50;;;74.70;;
52724;SDS011;38621;52.830;6.914;2024-03-23T11:00:53;51.10;;;49.05;;
52724;SDS011;38621;52.830;6.914;2024-03-23T11:03:31;64.97;;;62.72;;
52724;SDS011;38621;52.830;6.914;2024-03-23T11:05:59;138.38;;;130.05;;
52724;SDS011;38621;52.830;6.914;2024-03-23T11:08:36;26.27;;;25.17;;
52724;SDS011;38621;52.830;6.914;2024-03-23T11:11:12;55.70;;;53.55;;
52724;SDS011;38621;52.830;6.914;2024-03-23T11:13:54;50.13;;;48.28;;
52724;SDS011;38621;52.830;6.914;2024-03-23T11:16:24;86.30;;;82.43;;
52724;SDS011;38621;52.830;6.914;2024-03-23T11:22:03;55.58;;;53.30;;
52724;SDS011;38621;52.830;6.914;2024-03-23T11:24:33;81.80;;;78.82;;
52724;SDS011;38621;52.830;6.914;2024-03-23T11:26:59;75.57;;;72.72;;
52724;SDS011;38621;52.830;6.914;2024-03-23T11:29:26;121.43;;;116.88;;
52724;SDS011;38621;52.830;6.914;2024-03-23T11:31:54;126.97;;;120.45;;
52724;SDS011;38621;52.830;6.914;2024-03-23T11:34:20;133.40;;;127.07;;
52724;SDS011;38621;52.830;6.914;2024-03-23T11:36:46;85.40;;;82.38;;
52724;SDS011;38621;52.830;6.914;2024-03-23T11:44:19;89.30;;;86.10;;
52724;SDS011;38621;52.830;6.914;2024-03-23T11:46:48;142.18;;;137.00;;
52724;SDS011;38621;52.830;6.914;2024-03-23T11:49:24;117.47;;;113.50;;
52724;SDS011;38621;52.830;6.914;2024-03-23T11:51:52;133.25;;;128.48;;
52724;SDS011;38621;52.830;6.914;2024-03-23T11:54:20;115.97;;;112.13;;
52724;SDS011;38621;52.830;6.914;2024-03-23T11:56:54;137.48;;;132.82;;
52724;SDS011;38621;52.830;6.914;2024-03-23T11:59:36;101.97;;;98.70;;
52724;SDS011;38621;52.830;6.914;2024-03-23T12:02:13;121.75;;;117.40;;
52724;SDS011;38621;52.830;6.914;2024-03-23T12:04:40;137.88;;;133.02;;
52724;SDS011;38621;52.830;6.914;2024-03-23T12:07:13;119.47;;;115.35;;
52724;SDS011;38621;52.830;6.914;2024-03-23T12:09:40;102.53;;;98.60;;
52724;SDS011;38621;52.830;6.914;2024-03-23T12:12:07;105.10;;;101.55;;
52724;SDS011;38621;52.830;6.914;2024-03-23T12:14:43;110.40;;;106.65;;
52724;SDS011;38621;52.830;6.914;2024-03-23T12:17:10;101.90;;;98.43;;
52724;SDS011;38621;52.830;6.914;2024-03-23T12:19:40;127.40;;;123.25;;
52724;SDS011;38621;52.830;6.914;2024-03-23T12:22:07;124.00;;;119.57;;
52724;SDS011;38621;52.830;6.914;2024-03-23T12:24:34;99.72;;;96.15;;
52724;SDS011;38621;52.830;6.914;2024-03-23T12:27:00;110.22;;;106.35;;
52724;SDS011;38621;52.830;6.914;2024-03-23T12:29:30;124.93;;;120.50;;
52724;SDS011;38621;52.830;6.914;2024-03-23T12:32:00;216.93;;;208.18;;
52724;SDS011;38621;52.830;6.914;2024-03-23T12:34:27;246.07;;;234.43;;
52724;SDS011;38621;52.830;6.914;2024-03-23T12:36:55;145.57;;;139.30;;
52724;SDS011;38621;52.830;6.914;2024-03-23T12:39:21;207.30;;;199.63;;
52724;SDS011;38621;52.830;6.914;2024-03-23T12:41:47;136.52;;;131.48;;
52724;SDS011;38621;52.830;6.914;2024-03-23T12:44:13;113.93;;;109.68;;
52724;SDS011;38621;52.830;6.914;2024-03-23T12:46:43;88.55;;;85.53;;
52724;SDS011;38621;52.830;6.914;2024-03-23T12:49:09;245.23;;;236.77;;
52724;SDS011;38621;52.830;6.914;2024-03-23T12:51:35;101.28;;;97.82;;
52724;SDS011;38621;52.830;6.914;2024-03-23T12:54:01;114.75;;;110.55;;
52724;SDS011;38621;52.830;6.914;2024-03-23T12:56:27;172.18;;;165.30;;
52724;SDS011;38621;52.830;6.914;2024-03-23T12:58:56;115.80;;;111.43;;
52724;SDS011;38621;52.830;6.914;2024-03-23T13:01:25;98.97;;;95.32;;
52724;SDS011;38621;52.830;6.914;2024-03-23T13:03:51;102.28;;;98.53;;
52724;SDS011;38621;52.830;6.914;2024-03-23T13:06:18;96.75;;;93.43;;
52724;SDS011;38621;52.830;6.914;2024-03-23T13:08:44;81.47;;;78.55;;
52724;SDS011;38621;52.830;6.914;2024-03-23T13:11:10;102.68;;;99.28;;
52724;SDS011;38621;52.830;6.914;2024-03-23T13:13:37;85.85;;;82.80;;
52724;SDS011;38621;52.830;6.914;2024-03-23T13:16:04;77.00;;;74.35;;
52724;SDS011;38621;52.830;6.914;2024-03-23T13:18:30;85.05;;;82.05;;
52724;SDS011;38621;52.830;6.914;2024-03-23T13:20:57;107.80;;;103.63;;
52724;SDS011;38621;52.830;6.914;2024-03-23T13:23:23;82.30;;;79.28;;
52724;SDS011;38621;52.830;6.914;2024-03-23T13:25:49;79.68;;;76.78;;
52724;SDS011;38621;52.830;6.914;2024-03-23T13:28:16;118.18;;;113.85;;
52724;SDS011;38621;52.830;6.914;2024-03-23T13:30:49;84.20;;;80.78;;
52724;SDS011;38621;52.830;6.914;2024-03-23T13:33:18;126.30;;;121.65;;
52724;SDS011;38621;52.830;6.914;2024-03-23T13:38:16;93.95;;;90.72;;
52724;SDS011;38621;52.830;6.914;2024-03-23T13:43:21;86.65;;;83.82;;
52724;SDS011;38621;52.830;6.914;2024-03-23T13:45:48;88.07;;;84.97;;
52724;SDS011;38621;52.830;6.914;2024-03-23T13:48:18;91.28;;;88.18;;
52724;SDS011;38621;52.830;6.914;2024-03-23T13:50:56;141.00;;;135.57;;
52724;SDS011;38621;52.830;6.914;2024-03-23T13:53:25;149.55;;;143.23;;
52724;SDS011;38621;52.830;6.914;2024-03-23T13:55:51;28.80;;;27.63;;
52724;SDS011;38621;52.830;6.914;2024-03-23T13:58:18;254.80;;;239.48;;
52724;SDS011;38621;52.830;6.914;2024-03-23T14:00:44;77.22;;;74.18;;
52724;SDS011;38621;52.830;6.914;2024-03-23T14:03:10;84.07;;;81.03;;
52724;SDS011;38621;52.830;6.914;2024-03-23T14:05:36;165.15;;;158.00;;
52724;SDS011;38621;52.830;6.914;2024-03-23T14:08:08;56.85;;;54.45;;
52724;SDS011;38621;52.830;6.914;2024-03-23T14:10:35;46.50;;;44.33;;
52724;SDS011;38621;52.830;6.914;2024-03-23T14:13:02;36.88;;;34.65;;
52724;SDS011;38621;52.830;6.914;2024-03-23T14:15:31;28.63;;;27.52;;
52724;SDS011;38621;52.830;6.914;2024-03-23T14:17:57;50.67;;;48.58;;
52724;SDS011;38621;52.830;6.914;2024-03-23T14:20:23;44.03;;;42.33;;
52724;SDS011;38621;52.830;6.914;2024-03-23T14:22:49;43.65;;;41.90;;
52724;SDS011;38621;52.830;6.914;2024-03-23T14:25:15;63.95;;;61.35;;
52724;SDS011;38621;52.830;6.914;2024-03-23T14:27:41;48.85;;;46.70;;
52724;SDS011;38621;52.830;6.914;2024-03-23T14:30:09;24.17;;;23.08;;
52724;SDS011;38621;52.830;6.914;2024-03-23T14:32:35;30.63;;;29.33;;
52724;SDS011;38621;52.830;6.914;2024-03-23T14:35:05;167.93;;;159.05;;
52724;SDS011;38621;52.830;6.914;2024-03-23T14:37:38;49.05;;;47.25;;
52724;SDS011;38621;52.830;6.914;2024-03-23T14:40:05;36.75;;;35.03;;
52724;SDS011;38621;52.830;6.914;2024-03-23T14:42:31;34.92;;;33.55;;
52724;SDS011;38621;52.830;6.914;2024-03-23T14:44:57;70.28;;;67.22;;
52724;SDS011;38621;52.830;6.914;2024-03-23T14:47:23;30.92;;;29.80;;
52724;SDS011;38621;52.830;6.914;2024-03-23T14:49:49;47.22;;;45.40;;
52724;SDS011;38621;52.830;6.914;2024-03-23T14:52:17;45.20;;;43.22;;
52724;SDS011;38621;52.830;6.914;2024-03-23T14:54:43;82.32;;;78.32;;
52724;SDS011;38621;52.830;6.914;2024-03-23T14:57:09;95.13;;;90.82;;
52724;SDS011;38621;52.830;6.914;2024-03-23T14:59:35;290.38;;;274.85;;
52724;SDS011;38621;52.830;6.914;2024-03-23T15:02:03;321.02;;;305.77;;
52724;SDS011;38621;52.830;6.914;2024-03-23T15:04:29;324.60;;;309.30;;
52724;SDS011;38621;52.830;6.914;2024-03-23T15:06:55;254.15;;;243.52;;
52724;SDS011;38621;52.830;6.914;2024-03-23T15:09:20;113.20;;;109.22;;
52724;SDS011;38621;52.830;6.914;2024-03-23T15:11:46;128.05;;;123.45;;
52724;SDS011;38621;52.830;6.914;2024-03-23T15:14:12;121.82;;;117.15;;
52724;SDS011;38621;52.830;6.914;2024-03-23T15:16:37;124.85;;;120.53;;
52724;SDS011;38621;52.830;6.914;2024-03-23T15:19:03;75.13;;;72.47;;
52724;SDS011;38621;52.830;6.914;2024-03-23T15:21:31;106.03;;;101.10;;
52724;SDS011;38621;52.830;6.914;2024-03-23T15:23:57;120.07;;;115.97;;
52724;SDS011;38621;52.830;6.914;2024-03-23T15:26:22;88.82;;;85.65;;